createdAt,value
2019-05-22T00:38:07.140Z,60.68
2019-05-22T00:38:07.688Z,60.49
2019-05-22T00:38:08.285Z,60.58
2019-05-22T00:38:09.128Z,60.21
2019-05-22T00:38:09.807Z,60.24
2019-05-22T00:38:10.275Z,60.21
2019-05-22T00:39:05.783Z,60.68
2019-05-22T00:39:06.353Z,60.21
2019-05-22T00:39:06.954Z,60.24
2019-05-22T00:39:07.554Z,60.33
2019-05-22T00:39:08.154Z,60.24
2019-05-22T00:39:08.753Z,60.21
2019-05-22T00:40:04.457Z,59.76
2019-05-22T00:40:05.031Z,59.66
2019-05-22T00:40:05.631Z,59.63
2019-05-22T00:40:06.231Z,59.63
2019-05-22T00:40:06.830Z,59.47
2019-05-22T00:40:07.432Z,59.47
2019-05-22T00:41:02.110Z,59.34
2019-05-22T00:41:02.685Z,59.09
2019-05-22T00:41:03.292Z,59.34
2019-05-22T00:41:03.899Z,59.38
2019-05-22T00:41:04.483Z,59.19
2019-05-22T00:42:00.794Z,59.28
2019-05-22T00:42:01.358Z,59.34
2019-05-22T00:42:01.959Z,59.25
2019-05-22T00:42:02.562Z,59.47
2019-05-22T00:42:03.159Z,59.34
2019-05-22T00:42:03.760Z,59.34
2019-05-22T00:43:04.061Z,58.80
2019-05-22T00:43:04.159Z,59.06
2019-05-22T00:43:04.244Z,58.70
2019-05-22T00:43:04.256Z,58.90
2019-05-22T00:43:05.525Z,58.99
2019-05-22T00:43:06.759Z,58.90
2019-05-22T00:43:56.092Z,59.19
2019-05-22T00:43:56.663Z,59.38
2019-05-22T00:43:57.263Z,59.09
2019-05-22T00:43:57.864Z,59.09
2019-05-22T00:43:58.464Z,59.09
2019-05-22T00:44:54.771Z,59.53
2019-05-22T00:44:55.340Z,59.66
2019-05-22T00:44:55.939Z,59.73
2019-05-22T00:44:56.539Z,59.76
2019-05-22T00:44:57.138Z,59.76
2019-05-22T00:44:57.738Z,59.85
2019-05-22T00:45:52.422Z,60.61
2019-05-22T00:45:52.993Z,60.58
2019-05-22T00:45:53.591Z,60.90
2019-05-22T00:45:54.192Z,60.39
2019-05-22T00:45:54.805Z,60.61
2019-05-22T00:45:55.393Z,60.71
2019-05-22T00:46:50.072Z,60.81
2019-05-22T00:46:50.645Z,60.90
2019-05-22T00:46:51.245Z,60.81
2019-05-22T00:46:51.846Z,60.81
2019-05-22T00:46:52.444Z,60.90
2019-05-22T00:47:48.747Z,61.38
2019-05-22T00:47:49.319Z,61.29
2019-05-22T00:47:49.920Z,61.35
2019-05-22T00:47:50.519Z,61.19
2019-05-22T00:47:51.119Z,61.38
2019-05-22T00:47:51.721Z,61.47
2019-05-22T00:48:46.403Z,60.81
2019-05-22T00:48:46.971Z,60.81
2019-05-22T00:48:47.571Z,60.81
2019-05-22T00:48:48.172Z,60.68
2019-05-22T00:48:48.772Z,61.00
2019-05-22T00:48:49.373Z,60.81
2019-05-22T00:49:44.051Z,61.19
2019-05-22T00:49:44.624Z,61.19
2019-05-22T00:49:45.223Z,61.29
2019-05-22T00:49:45.826Z,61.29
2019-05-22T00:49:46.425Z,60.81
2019-05-22T00:50:41.703Z,61.57
2019-05-22T00:50:42.276Z,61.66
2019-05-22T00:50:42.876Z,61.66
2019-05-22T00:50:43.475Z,61.66
2019-05-22T00:50:44.125Z,61.29
2019-05-22T00:50:44.690Z,61.47
2019-05-22T00:51:39.355Z,62.34
2019-05-22T00:51:39.930Z,62.34
2019-05-22T00:51:40.528Z,62.43
2019-05-22T00:51:41.139Z,62.15
2019-05-22T00:51:41.728Z,62.15
2019-05-22T00:51:42.327Z,62.24
2019-05-22T00:52:38.033Z,63.29
2019-05-22T00:52:38.603Z,63.29
2019-05-22T00:52:39.202Z,63.29
2019-05-22T00:52:39.806Z,63.29
2019-05-22T00:52:40.406Z,63.29
2019-05-22T00:52:42.205Z,63.39
2019-05-22T00:53:36.705Z,63.86
2019-05-22T00:53:37.279Z,64.05
2019-05-22T00:53:37.878Z,64.05
2019-05-22T00:53:38.477Z,64.15
2019-05-22T00:53:39.090Z,64.15
2019-05-22T00:54:34.359Z,64.91
2019-05-22T00:54:34.932Z,64.91
2019-05-22T00:54:35.531Z,64.72
2019-05-22T00:54:36.130Z,64.72
2019-05-22T00:54:36.732Z,64.72
2019-05-22T00:54:37.332Z,64.43
2019-05-22T00:55:33.034Z,65.39
2019-05-22T00:55:33.606Z,65.67
2019-05-22T00:55:34.208Z,65.48
2019-05-22T00:55:34.808Z,65.30
2019-05-22T00:55:35.405Z,65.48
2019-05-22T00:55:36.006Z,65.48
2019-05-22T00:56:31.717Z,65.48
2019-05-22T00:56:32.282Z,65.48
2019-05-22T00:56:32.882Z,65.58
2019-05-22T00:56:33.481Z,65.48
2019-05-22T00:56:34.082Z,65.48
2019-05-22T00:56:34.687Z,65.39
2019-05-22T00:57:30.385Z,65.48
2019-05-22T00:57:30.959Z,65.48
2019-05-22T00:57:31.558Z,65.48
2019-05-22T00:57:32.157Z,65.30
2019-05-22T00:57:32.756Z,65.48
2019-05-22T00:57:34.560Z,65.58
2019-05-22T00:58:29.059Z,65.96
2019-05-22T00:58:29.637Z,66.15
2019-05-22T00:58:30.235Z,65.96
2019-05-22T00:58:30.833Z,66.35
2019-05-22T00:58:31.444Z,65.96
2019-05-22T00:59:26.716Z,65.30
2019-05-22T00:59:27.285Z,65.48
2019-05-22T00:59:27.886Z,65.39
2019-05-22T00:59:28.486Z,65.20
2019-05-22T00:59:29.089Z,65.30
2019-05-22T00:59:29.686Z,65.58
2019-05-22T01:00:24.367Z,65.30
2019-05-22T01:00:24.946Z,65.48
2019-05-22T01:00:25.537Z,65.58
2019-05-22T01:00:26.137Z,65.48
2019-05-22T01:00:26.756Z,65.77
2019-05-22T01:00:27.335Z,65.10
2019-05-22T01:01:22.018Z,66.44
2019-05-22T01:01:22.788Z,66.72
2019-05-22T01:01:23.188Z,66.63
2019-05-22T01:01:23.787Z,66.63
2019-05-22T01:01:24.391Z,66.63
2019-05-22T01:02:20.692Z,65.39
2019-05-22T01:02:21.264Z,65.58
2019-05-22T01:02:21.866Z,65.39
2019-05-22T01:02:22.465Z,65.58
2019-05-22T01:02:23.067Z,65.67
2019-05-22T01:02:23.663Z,65.96
2019-05-22T01:03:19.367Z,66.15
2019-05-22T01:03:19.940Z,66.35
2019-05-22T01:03:20.541Z,66.25
2019-05-22T01:03:21.150Z,66.25
2019-05-22T01:03:21.740Z,66.25
2019-05-22T01:03:22.342Z,66.25
2019-05-22T01:04:17.020Z,66.72
2019-05-22T01:04:17.593Z,66.06
2019-05-22T01:04:18.193Z,66.15
2019-05-22T01:04:18.792Z,66.25
2019-05-22T01:04:19.393Z,66.72
2019-05-22T01:04:21.193Z,66.53
2019-05-22T01:05:15.694Z,65.77
2019-05-22T01:05:16.269Z,65.58
2019-05-22T01:05:16.865Z,65.77
2019-05-22T01:05:17.468Z,65.48
2019-05-22T01:05:18.074Z,65.58
2019-05-22T01:06:14.371Z,66.25
2019-05-22T01:06:14.944Z,66.25
2019-05-22T01:06:15.542Z,66.35
2019-05-22T01:06:16.149Z,66.15
2019-05-22T01:06:16.742Z,66.25
2019-05-22T01:06:17.348Z,66.44
2019-05-22T01:07:13.047Z,65.48
2019-05-22T01:07:13.619Z,65.67
2019-05-22T01:07:14.218Z,65.39
2019-05-22T01:07:14.818Z,65.39
2019-05-22T01:07:15.419Z,65.30
2019-05-22T01:07:16.019Z,65.30
2019-05-22T01:08:11.723Z,65.48
2019-05-22T01:08:12.294Z,65.48
2019-05-22T01:08:12.895Z,65.58
2019-05-22T01:08:13.494Z,65.58
2019-05-22T01:08:14.095Z,65.48
2019-05-22T01:08:14.694Z,65.58
2019-05-22T01:09:09.376Z,65.30
2019-05-22T01:09:09.947Z,65.58
2019-05-22T01:09:10.545Z,65.30
2019-05-22T01:09:11.149Z,65.20
2019-05-22T01:09:11.746Z,65.01
2019-05-22T01:10:08.122Z,65.30
2019-05-22T01:10:08.621Z,65.67
2019-05-22T01:10:09.222Z,65.67
2019-05-22T01:10:09.820Z,65.67
2019-05-22T01:10:10.421Z,65.48
2019-05-22T01:10:11.098Z,65.30
2019-05-22T01:11:06.725Z,65.67
2019-05-22T01:11:07.298Z,66.35
2019-05-22T01:11:07.897Z,66.53
2019-05-22T01:11:08.497Z,66.06
2019-05-22T01:11:09.097Z,66.44
2019-05-22T01:11:09.697Z,65.87
2019-05-22T01:12:04.383Z,65.39
2019-05-22T01:12:04.951Z,65.58
2019-05-22T01:12:05.552Z,65.58
2019-05-22T01:12:06.151Z,65.58
2019-05-22T01:12:06.751Z,65.58
2019-05-22T01:12:08.550Z,65.77
2019-05-22T01:13:02.029Z,64.81
2019-05-22T01:13:02.602Z,65.01
2019-05-22T01:13:03.203Z,64.91
2019-05-22T01:13:03.803Z,64.91
2019-05-22T01:13:04.408Z,65.01
2019-05-22T01:14:00.704Z,64.43
2019-05-22T01:14:01.280Z,65.01
2019-05-22T01:14:01.880Z,65.01
2019-05-22T01:14:02.477Z,64.43
2019-05-22T01:14:03.077Z,64.34
2019-05-22T01:14:03.677Z,64.34
2019-05-22T01:14:58.391Z,64.62
2019-05-22T01:14:58.929Z,65.20
2019-05-22T01:14:59.529Z,64.81
2019-05-22T01:15:00.135Z,65.10
2019-05-22T01:15:00.729Z,65.10
2019-05-22T01:15:01.343Z,65.10
2019-05-22T01:15:56.009Z,63.96
2019-05-22T01:15:56.583Z,63.96
2019-05-22T01:15:57.181Z,63.96
2019-05-22T01:15:57.784Z,63.86
2019-05-22T01:15:58.380Z,63.96
2019-05-22T01:16:54.683Z,64.72
2019-05-22T01:16:55.256Z,64.43
2019-05-22T01:16:55.857Z,64.43
2019-05-22T01:16:56.455Z,64.62
2019-05-22T01:16:57.056Z,64.72
2019-05-22T01:16:57.656Z,64.53
2019-05-22T01:17:52.340Z,64.25
2019-05-22T01:17:52.909Z,63.96
2019-05-22T01:17:53.509Z,63.86
2019-05-22T01:17:54.111Z,63.96
2019-05-22T01:17:54.709Z,64.05
2019-05-22T01:17:55.308Z,64.05
2019-05-22T01:18:51.034Z,63.67
2019-05-22T01:18:51.583Z,63.86
2019-05-22T01:18:52.183Z,63.86
2019-05-22T01:18:52.782Z,63.57
2019-05-22T01:18:53.384Z,63.48
2019-05-22T01:18:55.186Z,63.48
2019-05-22T01:19:48.665Z,63.39
2019-05-22T01:19:49.237Z,63.76
2019-05-22T01:19:49.837Z,63.20
2019-05-22T01:19:50.435Z,63.20
2019-05-22T01:19:51.051Z,63.10
2019-05-22T01:20:47.341Z,62.81
2019-05-22T01:20:47.911Z,62.71
2019-05-22T01:20:48.513Z,62.71
2019-05-22T01:20:49.111Z,62.62
2019-05-22T01:20:49.711Z,62.71
2019-05-22T01:20:50.311Z,62.71
2019-05-22T01:21:46.013Z,62.52
2019-05-22T01:21:46.601Z,62.43
2019-05-22T01:21:47.188Z,62.43
2019-05-22T01:21:47.786Z,62.43
2019-05-22T01:21:48.385Z,62.43
2019-05-22T01:21:48.987Z,62.91
2019-05-22T01:22:47.329Z,62.81
2019-05-22T01:22:47.340Z,63.10
2019-05-22T01:22:47.398Z,62.81
2019-05-22T01:22:47.510Z,62.81
2019-05-22T01:22:47.568Z,62.81
2019-05-22T01:22:47.660Z,62.62
2019-05-22T01:23:43.365Z,62.71
2019-05-22T01:23:43.939Z,62.43
2019-05-22T01:23:44.537Z,63.00
2019-05-22T01:23:45.138Z,62.91
2019-05-22T01:23:45.738Z,62.91
2019-05-22T01:23:47.542Z,62.91
2019-05-22T01:24:41.021Z,62.43
2019-05-22T01:24:41.592Z,62.71
2019-05-22T01:24:42.190Z,62.81
2019-05-22T01:24:42.797Z,62.91
2019-05-22T01:24:43.396Z,62.71
2019-05-22T01:25:38.674Z,62.15
2019-05-22T01:25:39.244Z,61.76
2019-05-22T01:25:39.845Z,61.29
2019-05-22T01:25:40.444Z,62.05
2019-05-22T01:25:41.043Z,61.29
2019-05-22T01:25:41.647Z,61.86
2019-05-22T01:26:36.321Z,61.76
2019-05-22T01:26:36.895Z,61.76
2019-05-22T01:26:37.494Z,61.76
2019-05-22T01:26:38.094Z,61.66
2019-05-22T01:26:38.697Z,61.47
2019-05-22T01:26:39.296Z,61.57
2019-05-22T01:27:34.997Z,61.38
2019-05-22T01:27:35.569Z,61.47
2019-05-22T01:27:36.173Z,61.66
2019-05-22T01:27:36.770Z,61.66
2019-05-22T01:27:37.410Z,61.38
2019-05-22T01:27:39.171Z,61.38
2019-05-22T01:28:33.672Z,60.71
2019-05-22T01:28:34.246Z,61.10
2019-05-22T01:28:34.846Z,61.00
2019-05-22T01:28:35.444Z,61.10
2019-05-22T01:28:36.045Z,61.00
2019-05-22T01:29:31.326Z,61.29
2019-05-22T01:29:31.899Z,61.19
2019-05-22T01:29:32.497Z,61.47
2019-05-22T01:29:33.099Z,61.38
2019-05-22T01:29:33.697Z,61.47
2019-05-22T01:29:34.312Z,61.29
2019-05-22T01:30:30.000Z,61.38
2019-05-22T01:30:30.571Z,61.38
2019-05-22T01:30:31.173Z,61.66
2019-05-22T01:30:31.771Z,61.66
2019-05-22T01:30:32.371Z,61.66
2019-05-22T01:30:32.972Z,61.95
2019-05-22T01:31:28.675Z,62.43
2019-05-22T01:31:29.250Z,62.62
2019-05-22T01:31:29.848Z,62.52
2019-05-22T01:31:30.448Z,62.91
2019-05-22T01:31:31.048Z,62.52
2019-05-22T01:31:31.649Z,62.62
2019-05-22T01:32:27.355Z,62.43
2019-05-22T01:32:27.924Z,62.15
2019-05-22T01:32:28.526Z,62.52
2019-05-22T01:32:29.125Z,62.52
2019-05-22T01:32:29.721Z,62.43
2019-05-22T01:32:31.522Z,62.52
2019-05-22T01:33:26.030Z,62.24
2019-05-22T01:33:26.599Z,62.05
2019-05-22T01:33:27.198Z,61.95
2019-05-22T01:33:27.799Z,62.24
2019-05-22T01:33:28.399Z,62.24
2019-05-22T01:34:23.682Z,62.52
2019-05-22T01:34:24.257Z,62.71
2019-05-22T01:34:24.854Z,62.91
2019-05-22T01:34:25.453Z,62.52
2019-05-22T01:34:26.052Z,62.52
2019-05-22T01:34:26.655Z,62.43
2019-05-22T01:35:22.358Z,62.91
2019-05-22T01:35:22.927Z,62.43
2019-05-22T01:35:23.528Z,62.71
2019-05-22T01:35:24.127Z,62.43
2019-05-22T01:35:24.727Z,62.81
2019-05-22T01:35:25.328Z,62.34
2019-05-22T01:36:21.033Z,63.57
2019-05-22T01:36:21.602Z,62.91
2019-05-22T01:36:22.215Z,63.20
2019-05-22T01:36:22.803Z,63.48
2019-05-22T01:36:23.401Z,62.91
2019-05-22T01:36:24.008Z,63.20
2019-05-22T01:37:18.684Z,62.71
2019-05-22T01:37:19.257Z,62.62
2019-05-22T01:37:19.856Z,62.52
2019-05-22T01:37:20.456Z,62.52
2019-05-22T01:37:21.055Z,62.71
2019-05-22T01:38:17.362Z,62.05
2019-05-22T01:38:17.931Z,62.34
2019-05-22T01:38:18.536Z,62.05
2019-05-22T01:38:19.132Z,62.34
2019-05-22T01:38:19.730Z,62.24
2019-05-22T01:38:20.330Z,61.95
2019-05-22T01:39:15.010Z,61.95
2019-05-22T01:39:15.591Z,61.76
2019-05-22T01:39:16.182Z,61.76
2019-05-22T01:39:16.783Z,61.76
2019-05-22T01:39:17.389Z,61.66
2019-05-22T01:39:17.981Z,61.76
2019-05-22T01:40:13.688Z,62.43
2019-05-22T01:40:14.259Z,62.43
2019-05-22T01:40:14.859Z,62.34
2019-05-22T01:40:15.462Z,62.43
2019-05-22T01:40:16.058Z,62.43
2019-05-22T01:40:17.857Z,62.34
2019-05-22T01:41:12.360Z,61.76
2019-05-22T01:41:12.932Z,61.66
2019-05-22T01:41:13.534Z,61.38
2019-05-22T01:41:14.134Z,61.57
2019-05-22T01:41:14.748Z,61.47
2019-05-22T01:42:11.037Z,61.29
2019-05-22T01:42:11.610Z,61.19
2019-05-22T01:42:12.209Z,60.90
2019-05-22T01:42:12.812Z,60.90
2019-05-22T01:42:13.409Z,60.90
2019-05-22T01:42:14.009Z,60.90
2019-05-22T01:43:08.688Z,61.47
2019-05-22T01:43:09.262Z,61.47
2019-05-22T01:43:09.861Z,61.47
2019-05-22T01:43:10.462Z,61.47
2019-05-22T01:43:11.062Z,61.38
2019-05-22T01:43:11.662Z,61.47
2019-05-22T01:44:06.343Z,61.47
2019-05-22T01:44:06.916Z,61.47
2019-05-22T01:44:07.513Z,61.38
2019-05-22T01:44:08.120Z,61.19
2019-05-22T01:44:08.713Z,61.29
2019-05-22T01:45:06.833Z,60.71
2019-05-22T01:45:06.938Z,60.81
2019-05-22T01:45:06.946Z,60.81
2019-05-22T01:45:07.119Z,60.90
2019-05-22T01:45:07.386Z,61.10
2019-05-22T01:45:07.989Z,60.61
2019-05-22T01:46:03.696Z,60.71
2019-05-22T01:46:04.262Z,60.81
2019-05-22T01:46:04.863Z,60.61
2019-05-22T01:46:05.462Z,60.71
2019-05-22T01:46:06.063Z,61.00
2019-05-22T01:46:06.661Z,60.90
2019-05-22T01:47:02.369Z,60.42
2019-05-22T01:47:02.946Z,60.33
2019-05-22T01:47:03.540Z,60.33
2019-05-22T01:47:04.140Z,60.61
2019-05-22T01:47:04.739Z,60.61
2019-05-22T01:47:05.340Z,60.61
2019-05-22T01:48:01.043Z,61.29
2019-05-22T01:48:01.619Z,61.29
2019-05-22T01:48:02.216Z,61.29
2019-05-22T01:48:02.813Z,61.47
2019-05-22T01:48:03.414Z,61.10
2019-05-22T01:48:05.213Z,61.19
2019-05-22T01:48:59.719Z,61.10
2019-05-22T01:49:00.293Z,60.81
2019-05-22T01:49:00.892Z,61.00
2019-05-22T01:49:01.492Z,60.71
2019-05-22T01:49:02.092Z,60.90
2019-05-22T01:49:58.395Z,60.52
2019-05-22T01:49:58.968Z,60.52
2019-05-22T01:49:59.570Z,60.52
2019-05-22T01:50:00.183Z,60.61
2019-05-22T01:50:00.767Z,60.52
2019-05-22T01:50:01.395Z,60.42
2019-05-22T01:50:56.050Z,60.81
2019-05-22T01:50:56.619Z,60.71
2019-05-22T01:50:57.220Z,60.61
2019-05-22T01:50:57.853Z,60.71
2019-05-22T01:50:58.470Z,61.10
2019-05-22T01:50:59.020Z,60.71
2019-05-22T01:51:53.701Z,60.71
2019-05-22T01:51:54.273Z,60.42
2019-05-22T01:51:54.871Z,60.42
2019-05-22T01:51:55.471Z,60.52
2019-05-22T01:51:56.075Z,60.42
2019-05-22T01:52:52.373Z,62.05
2019-05-22T01:52:52.950Z,61.86
2019-05-22T01:52:53.547Z,61.95
2019-05-22T01:52:54.147Z,62.05
2019-05-22T01:52:54.747Z,62.24
2019-05-22T01:52:55.346Z,62.34
2019-05-22T01:53:51.049Z,62.34
2019-05-22T01:53:51.624Z,62.24
2019-05-22T01:53:52.222Z,62.34
2019-05-22T01:53:52.822Z,62.43
2019-05-22T01:53:53.450Z,62.34
2019-05-22T01:53:54.075Z,62.43
2019-05-22T01:54:49.726Z,62.52
2019-05-22T01:54:50.298Z,62.37
2019-05-22T01:54:50.914Z,62.05
2019-05-22T01:54:51.499Z,62.34
2019-05-22T01:54:52.096Z,61.86
2019-05-22T01:54:52.702Z,62.05
2019-05-22T01:55:47.394Z,63.39
2019-05-22T01:55:47.951Z,63.39
2019-05-22T01:55:48.551Z,63.00
2019-05-22T01:55:49.151Z,63.48
2019-05-22T01:55:49.753Z,63.39
2019-05-22T01:56:46.057Z,64.72
2019-05-22T01:56:46.625Z,64.81
2019-05-22T01:56:47.225Z,64.81
2019-05-22T01:56:47.824Z,64.81
2019-05-22T01:56:48.432Z,64.72
2019-05-22T01:56:49.025Z,64.81
2019-05-22T01:57:43.704Z,64.53
2019-05-22T01:57:44.278Z,64.34
2019-05-22T01:57:44.877Z,64.91
2019-05-22T01:57:45.479Z,64.81
2019-05-22T01:57:46.078Z,64.81
2019-05-22T01:57:46.677Z,64.72
2019-05-22T01:58:41.358Z,64.15
2019-05-22T01:58:41.930Z,64.25
2019-05-22T01:58:42.530Z,64.05
2019-05-22T01:58:43.130Z,64.25
2019-05-22T01:58:43.739Z,64.15
2019-05-22T01:59:39.015Z,64.53
2019-05-22T01:59:39.583Z,65.01
2019-05-22T01:59:40.183Z,64.81
2019-05-22T01:59:40.782Z,65.10
2019-05-22T01:59:41.382Z,65.10
2019-05-22T01:59:41.986Z,64.91
2019-05-22T02:00:37.684Z,64.25
2019-05-22T02:00:38.259Z,64.25
2019-05-22T02:00:38.904Z,64.25
2019-05-22T02:00:39.453Z,64.25
2019-05-22T02:00:40.054Z,63.96
2019-05-22T02:00:40.654Z,64.25
2019-05-22T02:01:36.360Z,64.72
2019-05-22T02:01:36.949Z,64.62
2019-05-22T02:01:37.534Z,64.34
2019-05-22T02:01:38.135Z,64.72
2019-05-22T02:01:38.732Z,64.62
2019-05-22T02:01:39.332Z,64.62
2019-05-22T02:02:35.034Z,65.10
2019-05-22T02:02:35.607Z,65.01
2019-05-22T02:02:36.207Z,64.91
2019-05-22T02:02:36.808Z,64.91
2019-05-22T02:02:37.406Z,65.01
2019-05-22T02:02:39.207Z,64.81
2019-05-22T02:03:32.690Z,65.39
2019-05-22T02:03:33.259Z,65.30
2019-05-22T02:03:33.860Z,65.30
2019-05-22T02:03:34.462Z,65.39
2019-05-22T02:03:35.059Z,65.30
2019-05-22T02:04:30.339Z,65.77
2019-05-22T02:04:30.913Z,65.39
2019-05-22T02:04:31.513Z,65.20
2019-05-22T02:04:32.113Z,65.10
2019-05-22T02:04:32.714Z,65.58
2019-05-22T02:04:33.311Z,65.58
2019-05-22T02:05:29.017Z,66.15
2019-05-22T02:05:29.590Z,66.53
2019-05-22T02:05:30.187Z,66.44
2019-05-22T02:05:30.788Z,66.35
2019-05-22T02:05:31.390Z,66.44
2019-05-22T02:05:31.988Z,66.44
2019-05-22T02:06:27.694Z,66.82
2019-05-22T02:06:28.264Z,67.01
2019-05-22T02:06:28.867Z,67.11
2019-05-22T02:06:29.462Z,67.01
2019-05-22T02:06:30.065Z,67.30
2019-05-22T02:06:30.666Z,67.01
2019-05-22T02:07:26.365Z,65.87
2019-05-22T02:07:26.942Z,65.48
2019-05-22T02:07:27.537Z,65.20
2019-05-22T02:07:28.139Z,65.39
2019-05-22T02:07:28.741Z,65.39
2019-05-22T02:07:30.544Z,64.81
2019-05-22T02:08:24.020Z,64.81
2019-05-22T02:08:24.593Z,64.81
2019-05-22T02:08:25.191Z,64.81
2019-05-22T02:08:25.790Z,64.81
2019-05-22T02:08:26.394Z,64.81
2019-05-22T02:09:22.693Z,64.34
2019-05-22T02:09:23.269Z,64.81
2019-05-22T02:09:23.888Z,64.81
2019-05-22T02:09:24.542Z,64.62
2019-05-22T02:09:25.126Z,64.62
2019-05-22T02:09:25.710Z,64.81
2019-05-22T02:10:20.351Z,64.25
2019-05-22T02:10:20.918Z,64.34
2019-05-22T02:10:21.519Z,64.91
2019-05-22T02:10:22.117Z,64.25
2019-05-22T02:10:22.719Z,64.81
2019-05-22T02:10:23.318Z,64.81
2019-05-22T02:11:19.020Z,63.96
2019-05-22T02:11:19.594Z,64.15
2019-05-22T02:11:20.194Z,64.34
2019-05-22T02:11:20.793Z,64.15
2019-05-22T02:11:21.395Z,64.25
2019-05-22T02:11:23.192Z,64.43
2019-05-22T02:12:17.696Z,64.81
2019-05-22T02:12:18.326Z,64.25
2019-05-22T02:12:18.871Z,64.62
2019-05-22T02:12:19.468Z,64.62
2019-05-22T02:12:20.069Z,64.62
2019-05-22T02:13:15.349Z,64.53
2019-05-22T02:13:15.922Z,64.62
2019-05-22T02:13:16.523Z,64.62
2019-05-22T02:13:17.121Z,64.62
2019-05-22T02:13:17.721Z,64.91
2019-05-22T02:13:18.326Z,64.53
2019-05-22T02:14:12.999Z,65.01
2019-05-22T02:14:13.573Z,65.20
2019-05-22T02:14:14.174Z,64.62
2019-05-22T02:14:14.830Z,65.10
2019-05-22T02:14:15.376Z,65.01
2019-05-22T02:14:15.973Z,65.20
2019-05-22T02:15:10.652Z,64.62
2019-05-22T02:15:11.228Z,65.10
2019-05-22T02:15:11.826Z,65.20
2019-05-22T02:15:12.428Z,65.30
2019-05-22T02:15:13.025Z,65.01
2019-05-22T02:16:08.303Z,65.67
2019-05-22T02:16:08.877Z,65.48
2019-05-22T02:16:09.483Z,65.39
2019-05-22T02:16:10.078Z,65.48
2019-05-22T02:16:10.677Z,65.48
2019-05-22T02:16:11.276Z,65.48
2019-05-22T02:17:06.980Z,64.72
2019-05-22T02:17:07.552Z,64.43
2019-05-22T02:17:08.153Z,64.72
2019-05-22T02:17:08.752Z,65.01
2019-05-22T02:17:09.359Z,64.72
2019-05-22T02:17:09.951Z,64.72
2019-05-22T02:18:05.655Z,65.39
2019-05-22T02:18:06.227Z,65.20
2019-05-22T02:18:06.828Z,65.39
2019-05-22T02:18:07.428Z,65.48
2019-05-22T02:18:08.028Z,65.77
2019-05-22T02:18:08.627Z,65.58
2019-05-22T02:19:04.330Z,65.39
2019-05-22T02:19:04.904Z,65.48
2019-05-22T02:19:05.503Z,65.48
2019-05-22T02:19:06.102Z,65.39
2019-05-22T02:19:06.702Z,65.20
2019-05-22T02:19:08.505Z,65.39
2019-05-22T02:20:03.036Z,65.48
2019-05-22T02:20:03.924Z,65.58
2019-05-22T02:20:04.454Z,65.39
2019-05-22T02:20:04.875Z,65.67
2019-05-22T02:20:05.392Z,65.67
2019-05-22T02:21:00.658Z,65.30
2019-05-22T02:21:01.232Z,65.48
2019-05-22T02:21:01.834Z,65.39
2019-05-22T02:21:02.434Z,65.39
2019-05-22T02:21:03.031Z,65.58
2019-05-22T02:21:03.631Z,65.58
2019-05-22T02:21:59.339Z,64.81
2019-05-22T02:21:59.907Z,64.91
2019-05-22T02:22:00.509Z,64.81
2019-05-22T02:22:01.107Z,64.72
2019-05-22T02:22:01.710Z,65.10
2019-05-22T02:22:02.312Z,64.53
2019-05-22T02:22:57.036Z,66.06
2019-05-22T02:22:57.561Z,66.44
2019-05-22T02:22:58.157Z,65.87
2019-05-22T02:22:58.758Z,66.35
2019-05-22T02:22:59.358Z,65.87
2019-05-22T02:23:01.159Z,66.44
2019-05-22T02:23:55.664Z,66.06
2019-05-22T02:23:56.235Z,66.25
2019-05-22T02:23:56.833Z,66.25
2019-05-22T02:23:57.433Z,66.25
2019-05-22T02:23:58.033Z,66.06
2019-05-22T02:24:54.337Z,65.10
2019-05-22T02:24:54.910Z,65.48
2019-05-22T02:24:55.511Z,65.67
2019-05-22T02:24:56.109Z,65.10
2019-05-22T02:24:56.709Z,65.77
2019-05-22T02:24:57.309Z,65.39
2019-05-22T02:25:51.992Z,65.01
2019-05-22T02:25:52.562Z,64.72
2019-05-22T02:25:53.162Z,64.91
2019-05-22T02:25:53.772Z,65.01
2019-05-22T02:25:54.362Z,65.01
2019-05-22T02:25:54.962Z,64.91
2019-05-22T02:26:49.641Z,64.81
2019-05-22T02:26:50.213Z,64.62
2019-05-22T02:26:50.814Z,64.53
2019-05-22T02:26:51.414Z,64.91
2019-05-22T02:26:52.012Z,64.15
2019-05-22T02:27:48.316Z,63.86
2019-05-22T02:27:48.890Z,63.86
2019-05-22T02:27:49.488Z,63.76
2019-05-22T02:27:50.089Z,63.86
2019-05-22T02:27:50.969Z,63.76
2019-05-22T02:27:51.500Z,63.86
2019-05-22T02:28:46.996Z,64.05
2019-05-22T02:28:47.567Z,64.15
2019-05-22T02:28:48.171Z,64.05
2019-05-22T02:28:48.765Z,64.25
2019-05-22T02:28:49.364Z,64.05
2019-05-22T02:28:49.969Z,64.15
2019-05-22T02:29:44.645Z,64.05
2019-05-22T02:29:45.218Z,63.86
2019-05-22T02:29:45.818Z,64.15
2019-05-22T02:29:46.417Z,64.05
2019-05-22T02:29:47.019Z,64.15
2019-05-22T02:29:48.818Z,64.15
2019-05-22T02:30:42.301Z,63.48
2019-05-22T02:30:42.870Z,63.20
2019-05-22T02:30:43.481Z,63.48
2019-05-22T02:30:44.068Z,63.39
2019-05-22T02:30:44.669Z,63.20
2019-05-22T02:31:39.950Z,63.76
2019-05-22T02:31:40.522Z,63.10
2019-05-22T02:31:41.121Z,63.57
2019-05-22T02:31:41.721Z,63.76
2019-05-22T02:31:42.324Z,63.48
2019-05-22T02:31:42.921Z,63.67
2019-05-22T02:32:38.623Z,63.00
2019-05-22T02:32:39.202Z,63.00
2019-05-22T02:32:39.795Z,63.00
2019-05-22T02:32:40.395Z,63.00
2019-05-22T02:32:41.000Z,63.57
2019-05-22T02:32:41.607Z,63.10
2019-05-22T02:33:37.299Z,63.10
2019-05-22T02:33:37.870Z,62.81
2019-05-22T02:33:38.473Z,63.10
2019-05-22T02:33:39.071Z,63.10
2019-05-22T02:33:39.671Z,63.39
2019-05-22T02:33:40.271Z,63.39
2019-05-22T02:34:34.952Z,63.86
2019-05-22T02:34:35.524Z,63.96
2019-05-22T02:34:36.126Z,63.86
2019-05-22T02:34:36.725Z,63.86
2019-05-22T02:34:37.328Z,63.86
2019-05-22T02:35:32.603Z,63.67
2019-05-22T02:35:33.177Z,63.67
2019-05-22T02:35:33.863Z,63.67
2019-05-22T02:35:34.380Z,63.57
2019-05-22T02:35:34.976Z,63.57
2019-05-22T02:35:35.578Z,63.57
2019-05-22T02:39:38.265Z,62.24
2019-05-22T02:39:38.845Z,62.34
2019-05-22T02:39:39.444Z,62.34
2019-05-22T02:39:40.037Z,62.43
2019-05-22T02:39:40.639Z,62.24
2019-05-22T02:39:41.328Z,62.24
2019-05-22T02:40:39.406Z,61.57
2019-05-22T02:40:39.968Z,61.47
2019-05-22T02:40:40.569Z,61.47
2019-05-22T02:40:41.169Z,61.47
2019-05-22T02:40:41.771Z,61.47
2019-05-22T02:40:42.370Z,61.47
2019-05-22T02:41:38.075Z,61.57
2019-05-22T02:41:38.649Z,60.90
2019-05-22T02:41:39.243Z,61.19
2019-05-22T02:41:39.844Z,61.57
2019-05-22T02:41:40.445Z,61.57
2019-05-22T02:41:41.046Z,61.57
2019-05-22T02:42:36.749Z,62.15
2019-05-22T02:42:37.321Z,62.05
2019-05-22T02:42:37.920Z,62.05
2019-05-22T02:42:38.520Z,62.15
2019-05-22T02:42:39.126Z,62.05
2019-05-22T02:42:39.720Z,62.05
2019-05-22T02:43:35.424Z,62.34
2019-05-22T02:43:36.000Z,62.34
2019-05-22T02:43:36.607Z,62.43
2019-05-22T02:43:37.199Z,62.24
2019-05-22T02:43:37.797Z,61.95
2019-05-22T02:43:39.594Z,62.15
2019-05-22T02:44:33.076Z,63.20
2019-05-22T02:44:33.654Z,63.67
2019-05-22T02:44:34.248Z,63.29
2019-05-22T02:44:34.869Z,63.20
2019-05-22T02:44:35.449Z,63.29
2019-05-22T02:45:30.728Z,63.48
2019-05-22T02:45:31.299Z,63.48
2019-05-22T02:45:31.919Z,63.29
2019-05-22T02:45:32.501Z,63.48
2019-05-22T02:45:33.104Z,63.67
2019-05-22T02:45:33.698Z,63.39
2019-05-22T02:46:28.379Z,63.86
2019-05-22T02:46:28.951Z,64.05
2019-05-22T02:46:29.553Z,63.86
2019-05-22T02:46:30.151Z,63.86
2019-05-22T02:46:30.751Z,63.86
2019-05-22T02:46:31.351Z,64.05
2019-05-22T02:47:26.031Z,64.25
2019-05-22T02:47:26.613Z,64.25
2019-05-22T02:47:27.204Z,63.96
2019-05-22T02:47:27.803Z,64.34
2019-05-22T02:47:28.404Z,63.67
2019-05-22T02:48:23.683Z,63.29
2019-05-22T02:48:24.255Z,63.20
2019-05-22T02:48:24.855Z,63.48
2019-05-22T02:48:25.458Z,63.20
2019-05-22T02:48:26.056Z,63.20
2019-05-22T02:48:26.655Z,63.39
2019-05-22T02:49:21.336Z,62.91
2019-05-22T02:49:21.907Z,62.91
2019-05-22T02:49:22.506Z,62.91
2019-05-22T02:49:23.111Z,62.91
2019-05-22T02:49:23.710Z,63.00
2019-05-22T02:49:24.306Z,62.34
2019-05-22T02:50:18.987Z,63.10
2019-05-22T02:50:19.559Z,63.29
2019-05-22T02:50:20.231Z,63.10
2019-05-22T02:50:20.765Z,63.10
2019-05-22T02:50:21.359Z,63.20
2019-05-22T02:51:16.639Z,62.71
2019-05-22T02:51:17.211Z,63.20
2019-05-22T02:51:17.810Z,62.62